Time;durP1;ratioP1;P1;durP2;ratioP2;P2;SDS_P1;SDS_P2;PMS_P1;PMS_P2;Temp;Humidity;BMP_temperature;BMP_pressure;BME280_temperature;BME280_humidity;BME280_pressure;Samples;Min_cycle;Max_cycle;Signal;HPM_P1;HPM_P2
2022/01/24 00:00:03;;;;;;;;;;;;;;;;;;5014753;28;19982;-57
2022/01/24 00:02:30;;;;;;;;;;;;;;;;;;5015815;28;20496;-56
2022/01/24 00:04:55;;;;;;;;;;;;;;;;;;5016131;28;19917;-58
2022/01/24 00:07:22;;;;;;;;;;;;;;;;;;5016291;28;20589;-57
2022/01/24 00:09:49;;;;;;;;;;;;;;;;;;5015312;28;19925;-58
2022/01/24 00:12:25;;;;;;;;;;;;;;;;;;5015362;28;19990;-58
2022/01/24 00:28:07;;;;;;;;;;;;;;;;;;5016025;28;19940;-58
2022/01/24 00:30:32;;;;;;;;;;;;;;;;;;5015845;28;20832;-58
2022/01/24 00:32:58;;;;;;;;;;;;;;;;;;5014799;28;19957;-59
2022/01/24 00:35:23;;;;;;;;;;;;;;;;;;5014502;28;19961;-57
2022/01/24 00:37:49;;;;;;;;;;;;;;;;;;5017425;28;19925;-57
2022/01/24 00:40:15;;;;;;;;;;;;;;;;;;5015602;28;19936;-58
2022/01/24 00:48:22;;;;;;;;;;;;;;;;;;5016529;28;19925;-58
2022/01/24 00:55:41;;;;;;;;;;;;;;;;;;5016407;28;20037;-57
2022/01/24 00:58:06;;;;;;;;;;;;;;;;;;5016394;28;19926;-56
2022/01/24 01:00:32;;;;;;;;;;;;;;;;;;5015281;28;19953;-58
2022/01/24 01:02:57;;;;;;;;;;;;;;;;;;5016712;28;19921;-58
2022/01/24 01:18:34;;;;;;;;;;;;;;;;;;5016177;28;20738;-58
2022/01/24 01:21:14;;;;;;;;;;;;;;;;;;5015347;28;19925;-58
2022/01/24 01:23:42;;;;;;;;;;;;;;;;;;5016156;28;19929;-58
2022/01/24 01:26:18;;;;;;;;;;;;;;;;;;5017312;28;19947;-57
2022/01/24 01:28:47;;;;;;;;;;;;;;;;;;5016170;28;20028;-58
2022/01/24 01:31:23;;;;;;;;;;;;;;;;;;5015644;28;20004;-60
2022/01/24 01:52:37;;;;;;;;;;;;;;;;;;5017816;28;20464;-58
2022/01/24 01:55:14;;;;;;;;;;;;;;;;;;5015582;28;19918;-58
2022/01/24 01:57:39;;;;;;;;;;;;;;;;;;5011502;28;20530;-58
2022/01/24 02:00:05;;;;;;;;;;;;;;;;;;5014292;28;19921;-58
2022/01/24 02:02:30;;;;;;;;;;;;;;;;;;5014504;28;19972;-58
2022/01/24 02:04:55;;;;;;;;;;;;;;;;;;5014014;28;20408;-57
2022/01/24 02:07:22;;;;;;;;;;;;;;;;;;5016914;28;19921;-57
2022/01/24 02:09:47;;;;;;;;;;;;;;;;;;5018942;28;20457;-59
2022/01/24 02:12:13;;;;;;;;;;;;;;;;;;5019412;28;19928;-57
2022/01/24 02:14:45;;;;;;;;;;;;;;;;;;5019822;28;20011;-58
2022/01/24 02:17:17;;;;;;;;;;;;;;;;;;5021635;28;19921;-58
2022/01/24 02:25:06;;;;;;;;;;;;;;;;;;5019356;28;19925;-56
2022/01/24 02:27:42;;;;;;;;;;;;;;;;;;5017899;28;19961;-56
2022/01/24 02:30:24;;;;;;;;;;;;;;;;;;5020345;28;19921;-58
2022/01/24 02:32:50;;;;;;;;;;;;;;;;;;5019579;28;19936;-57
2022/01/24 02:35:15;;;;;;;;;;;;;;;;;;5018774;28;19925;-58
2022/01/24 02:37:41;;;;;;;;;;;;;;;;;;5017438;28;19921;-57
2022/01/24 02:40:19;;;;;;;;;;;;;;;;;;5018191;28;19968;-57
2022/01/24 02:53:38;;;;;;;;;;;;;;;;;;5017292;28;20024;-59
2022/01/24 02:56:04;;;;;;;;;;;;;;;;;;5017032;28;19927;-57
2022/01/24 02:58:29;;;;;;;;;;;;;;;;;;5017443;28;19921;-56
2022/01/24 03:00:55;;;;;;;;;;;;;;;;;;5017822;28;19925;-57
2022/01/24 03:03:20;;;;;;;;;;;;;;;;;;5015128;28;20305;-57
2022/01/24 03:05:45;;;;;;;;;;;;;;;;;;5018104;28;20055;-55
2022/01/24 03:08:13;;;;;;;;;;;;;;;;;;5018739;28;19956;-58
2022/01/24 03:10:46;;;;;;;;;;;;;;;;;;5015115;28;19921;-57
2022/01/24 03:15:43;;;;;;;;;;;;;;;;;;5016998;28;19921;-57
2022/01/24 03:18:10;;;;;;;;;;;;;;;;;;5017114;28;19925;-59
2022/01/24 03:20:35;;;;;;;;;;;;;;;;;;5015448;28;19998;-58
2022/01/24 03:23:01;;;;;;;;;;;;;;;;;;5017939;28;20721;-57
2022/01/24 03:25:26;;;;;;;;;;;;;;;;;;5017218;28;20809;-56
2022/01/24 03:27:52;;;;;;;;;;;;;;;;;;5017103;28;19943;-54
2022/01/24 03:30:17;;;;;;;;;;;;;;;;;;5017153;28;19932;-58
2022/01/24 03:32:43;;;;;;;;;;;;;;;;;;5017844;28;19983;-57
2022/01/24 03:35:08;;;;;;;;;;;;;;;;;;5017679;28;19929;-58
2022/01/24 03:37:36;;;;;;;;;;;;;;;;;;5016124;28;20499;-59
2022/01/24 03:40:02;;;;;;;;;;;;;;;;;;5017770;28;19921;-59
2022/01/24 03:42:27;;;;;;;;;;;;;;;;;;5017024;28;20003;-58
2022/01/24 03:44:57;;;;;;;;;;;;;;;;;;5016955;28;19947;-58
2022/01/24 03:50:00;;;;;;;;;;;;;;;;;;5016423;28;19967;-57
2022/01/24 03:52:26;;;;;;;;;;;;;;;;;;5016244;28;19933;-58
2022/01/24 03:54:51;;;;;;;;;;;;;;;;;;5014817;28;19932;-57
2022/01/24 03:57:17;;;;;;;;;;;;;;;;;;5016168;28;19930;-56
2022/01/24 03:59:42;;;;;;;;;;;;;;;;;;5022010;28;19921;-54
2022/01/24 04:02:08;;;;;;;;;;;;;;;;;;5016593;28;19975;-55
2022/01/24 04:04:33;;;;;;;;;;;;;;;;;;5016154;28;19928;-57
2022/01/24 04:06:59;;;;;;;;;;;;;;;;;;5017594;28;20559;-57
2022/01/24 04:09:24;;;;;;;;;;;;;;;;;;5015748;28;19920;-57
2022/01/24 04:11:53;;;;;;;;;;;;;;;;;;5017430;28;20396;-57
2022/01/24 04:14:31;;;;;;;;;;;;;;;;;;5015616;28;19932;-57
2022/01/24 04:22:08;;;;;;;;;;;;;;;;;;5015412;28;19967;-57
2022/01/24 04:24:34;;;;;;;;;;;;;;;;;;5015336;28;20011;-56
2022/01/24 04:26:59;;;;;;;;;;;;;;;;;;5017649;28;20300;-57
2022/01/24 04:29:25;;;;;;;;;;;;;;;;;;5016726;28;19921;-56
2022/01/24 04:31:50;;;;;;;;;;;;;;;;;;5015164;28;19949;-56
2022/01/24 04:34:16;;;;;;;;;;;;;;;;;;5016677;28;19922;-56
2022/01/24 04:36:41;;;;;;;;;;;;;;;;;;5014991;28;19921;-56
2022/01/24 04:39:06;;;;;;;;;;;;;;;;;;5016919;28;19935;-57
2022/01/24 04:41:36;;;;;;;;;;;;;;;;;;5016226;28;19921;-57
2022/01/24 04:44:12;;;;;;;;;;;;;;;;;;5016907;28;20054;-57
2022/01/24 04:52:13;;;;;;;;;;;;;;;;;;5016074;28;19941;-58
2022/01/24 04:54:44;;;;;;;;;;;;;;;;;;5015196;28;19925;-58
2022/01/24 04:57:10;;;;;;;;;;;;;;;;;;5015917;28;19932;-59
2022/01/24 04:59:35;;;;;;;;;;;;;;;;;;5015576;28;19921;-58
2022/01/24 05:02:01;;;;;;;;;;;;;;;;;;5017130;28;19925;-58
2022/01/24 05:04:27;;;;;;;;;;;;;;;;;;5017502;28;19936;-57
2022/01/24 05:06:52;;;;;;;;;;;;;;;;;;5016877;28;19925;-59
2022/01/24 05:09:19;;;;;;;;;;;;;;;;;;5016490;28;20346;-56
2022/01/24 05:25:08;;;;;;;;;;;;;;;;;;5020299;28;20003;-57
2022/01/24 05:27:34;;;;;;;;;;;;;;;;;;5016896;28;20002;-57
2022/01/24 05:29:59;;;;;;;;;;;;;;;;;;5011019;28;19921;-58
2022/01/24 05:32:24;;;;;;;;;;;;;;;;;;5016131;28;19929;-57
2022/01/24 05:34:50;;;;;;;;;;;;;;;;;;5016999;28;19921;-54
2022/01/24 05:37:15;;;;;;;;;;;;;;;;;;5015779;28;19932;-56
2022/01/24 05:39:41;;;;;;;;;;;;;;;;;;5014628;28;19921;-54
2022/01/24 05:42:06;;;;;;;;;;;;;;;;;;5017338;28;20786;-57
2022/01/24 05:44:32;;;;;;;;;;;;;;;;;;5019257;28;19932;-56
2022/01/24 05:46:57;;;;;;;;;;;;;;;;;;5018716;28;19932;-58
2022/01/24 05:49:22;;;;;;;;;;;;;;;;;;5018260;28;19963;-57
2022/01/24 05:51:48;;;;;;;;;;;;;;;;;;5020472;28;20019;-58
2022/01/24 05:54:13;;;;;;;;;;;;;;;;;;5018590;28;20536;-58
2022/01/24 05:56:39;;;;;;;;;;;;;;;;;;5019037;28;19921;-58
2022/01/24 05:59:04;;;;;;;;;;;;;;;;;;5020689;28;20008;-58
2022/01/24 06:01:29;;;;;;;;;;;;;;;;;;5019018;28;19975;-59
2022/01/24 06:03:55;;;;;;;;;;;;;;;;;;5020399;28;20301;-59
2022/01/24 06:06:20;;;;;;;;;;;;;;;;;;5019239;28;20008;-58
2022/01/24 06:08:46;;;;;;;;;;;;;;;;;;5020528;28;20445;-58
2022/01/24 06:11:12;;;;;;;;;;;;;;;;;;5019503;28;20102;-57
2022/01/24 06:13:37;;;;;;;;;;;;;;;;;;5019534;28;20054;-57
2022/01/24 06:16:03;;;;;;;;;;;;;;;;;;5020207;28;19921;-59
2022/01/24 06:18:28;;;;;;;;;;;;;;;;;;5019007;28;19928;-57
2022/01/24 06:20:53;;;;;;;;;;;;;;;;;;5018606;28;20338;-59
2022/01/24 06:23:19;;;;;;;;;;;;;;;;;;5018412;28;19936;-58
2022/01/24 06:25:44;;;;;;;;;;;;;;;;;;5019388;28;19979;-57
2022/01/24 06:28:10;;;;;;;;;;;;;;;;;;5020296;28;20318;-58
2022/01/24 06:30:35;;;;;;;;;;;;;;;;;;5018029;28;19952;-58
2022/01/24 06:33:01;;;;;;;;;;;;;;;;;;5018105;28;19991;-58
2022/01/24 06:35:26;;;;;;;;;;;;;;;;;;5018447;28;19932;-58
2022/01/24 06:37:52;;;;;;;;;;;;;;;;;;5018953;28;19921;-58
2022/01/24 06:40:17;;;;;;;;;;;;;;;;;;5017624;28;19921;-58
2022/01/24 06:42:42;;;;;;;;;;;;;;;;;;5018288;28;19929;-58
2022/01/24 06:45:08;;;;;;;;;;;;;;;;;;5018726;28;19927;-58
2022/01/24 06:47:33;;;;;;;;;;;;;;;;;;5017452;28;19952;-58
2022/01/24 06:49:59;;;;;;;;;;;;;;;;;;5017438;28;19921;-56
2022/01/24 06:52:24;;;;;;;;;;;;;;;;;;5017785;28;19934;-58
2022/01/24 06:54:50;;;;;;;;;;;;;;;;;;5018660;28;20792;-58
2022/01/24 06:57:15;;;;;;;;;;;;;;;;;;5018704;28;20709;-57
2022/01/24 06:59:41;;;;;;;;;;;;;;;;;;5018005;28;20020;-55
2022/01/24 07:02:07;;;;;;;;;;;;;;;;;;5018916;28;19925;-56
2022/01/24 07:04:32;;;;;;;;;;;;;;;;;;5039856;28;19955;-57
2022/01/24 07:06:58;;;;;;;;;;;;;;;;;;5025814;28;20422;-58
2022/01/24 07:09:23;;;;;;;;;;;;;;;;;;5016711;28;19987;-58
2022/01/24 07:11:51;;;;;;;;;;;;;;;;;;5019488;28;19929;-58
2022/01/24 07:14:16;;;;;;;;;;;;;;;;;;5018284;28;20432;-57
2022/01/24 07:19:22;;;;;;;;;;;;;;;;;;5017760;28;20427;-58
2022/01/24 07:21:48;;;;;;;;;;;;;;;;;;5019865;28;19921;-58
2022/01/24 07:24:13;;;;;;;;;;;;;;;;;;5019017;28;19933;-57
2022/01/24 07:26:39;;;;;;;;;;;;;;;;;;5018160;28;20020;-57
2022/01/24 07:29:04;;;;;;;;;;;;;;;;;;5011492;28;20021;-58
2022/01/24 07:31:30;;;;;;;;;;;;;;;;;;5015966;28;19940;-58
2022/01/24 07:33:55;;;;;;;;;;;;;;;;;;5016965;28;19928;-58
2022/01/24 07:36:21;;;;;;;;;;;;;;;;;;5016459;28;19932;-58
2022/01/24 07:38:46;;;;;;;;;;;;;;;;;;5018580;28;19988;-57
2022/01/24 07:41:12;;;;;;;;;;;;;;;;;;5016928;28;20023;-55
2022/01/24 07:43:37;;;;;;;;;;;;;;;;;;5021201;28;19925;-58
2022/01/24 07:46:03;;;;;;;;;;;;;;;;;;5022114;28;19951;-58
2022/01/24 07:48:28;;;;;;;;;;;;;;;;;;5021875;28;19961;-58
2022/01/24 07:50:53;;;;;;;;;;;;;;;;;;5018065;28;19921;-58
2022/01/24 07:53:19;;;;;;;;;;;;;;;;;;5017539;28;20389;-58
2022/01/24 07:55:44;;;;;;;;;;;;;;;;;;5017778;28;19927;-58
2022/01/24 07:58:10;;;;;;;;;;;;;;;;;;5017973;28;19968;-56
2022/01/24 08:00:35;;;;;;;;;;;;;;;;;;5015817;28;20611;-58
2022/01/24 08:03:01;;;;;;;;;;;;;;;;;;5016763;28;20032;-58
2022/01/24 08:05:26;;;;;;;;;;;;;;;;;;5017007;28;19929;-58
2022/01/24 08:07:52;;;;;;;;;;;;;;;;;;5017267;28;20313;-58
2022/01/24 08:10:17;;;;;;;;;;;;;;;;;;5017113;28;20438;-58
2022/01/24 08:12:44;;;;;;;;;;;;;;;;;;5005429;28;19983;-58
2022/01/24 08:15:11;;;;;;;;;;;;;;;;;;5011287;28;19927;-57
2022/01/24 08:17:37;;;;;;;;;;;;;;;;;;5007660;28;20390;-57
2022/01/24 08:20:02;;;;;;;;;;;;;;;;;;4990720;28;19948;-56
2022/01/24 08:22:28;;;;;;;;;;;;;;;;;;5005339;28;19921;-57
2022/01/24 08:24:53;;;;;;;;;;;;;;;;;;5002891;28;19941;-54
2022/01/24 08:27:19;;;;;;;;;;;;;;;;;;5001108;28;19929;-56
2022/01/24 08:29:45;;;;;;;;;;;;;;;;;;4997152;28;19968;-58
2022/01/24 08:32:11;;;;;;;;;;;;;;;;;;5013607;28;19929;-57
2022/01/24 08:34:36;;;;;;;;;;;;;;;;;;4997981;28;19932;-58
2022/01/24 08:37:01;;;;;;;;;;;;;;;;;;4998347;28;19921;-58
2022/01/24 08:39:27;;;;;;;;;;;;;;;;;;4995945;28;19933;-57
2022/01/24 08:44:21;;;;;;;;;;;;;;;;;;4996958;28;19976;-58
2022/01/24 08:46:47;;;;;;;;;;;;;;;;;;4996679;28;20306;-57
2022/01/24 08:49:12;;;;;;;;;;;;;;;;;;4997166;28;19932;-57
2022/01/24 08:51:38;;;;;;;;;;;;;;;;;;4991453;28;19972;-58
2022/01/24 08:54:03;;;;;;;;;;;;;;;;;;5003621;28;19932;-58
2022/01/24 08:56:28;;;;;;;;;;;;;;;;;;4999251;28;19932;-57
2022/01/24 08:58:54;;;;;;;;;;;;;;;;;;4996797;28;20019;-58
2022/01/24 09:01:19;;;;;;;;;;;;;;;;;;4997217;28;20024;-57
2022/01/24 09:03:45;;;;;;;;;;;;;;;;;;4998111;28;20379;-56
2022/01/24 09:06:11;;;;;;;;;;;;;;;;;;4997305;28;20734;-58
2022/01/24 09:08:36;;;;;;;;;;;;;;;;;;5012867;28;19928;-56
2022/01/24 09:11:02;;;;;;;;;;;;;;;;;;4996545;28;21005;-58
2022/01/24 09:13:30;;;;;;;;;;;;;;;;;;4996369;28;20008;-55
2022/01/24 09:15:55;;;;;;;;;;;;;;;;;;5002896;28;19921;-58
2022/01/24 09:18:21;;;;;;;;;;;;;;;;;;5001665;28;19932;-58
2022/01/24 09:20:49;;;;;;;;;;;;;;;;;;5004219;28;19921;-58
2022/01/24 09:23:14;;;;;;;;;;;;;;;;;;5020521;28;19929;-58
2022/01/24 09:25:40;;;;;;;;;;;;;;;;;;5000910;28;19921;-56
2022/01/24 09:28:05;;;;;;;;;;;;;;;;;;5000010;28;20008;-57
2022/01/24 09:30:31;;;;;;;;;;;;;;;;;;4999816;28;20020;-58
2022/01/24 09:32:56;;;;;;;;;;;;;;;;;;5000167;28;22349;-57
2022/01/24 09:35:21;;;;;;;;;;;;;;;;;;5000068;28;19922;-58
2022/01/24 09:37:47;;;;;;;;;;;;;;;;;;5013282;28;19927;-57
2022/01/24 09:40:14;;;;;;;;;;;;;;;;;;5012834;28;19925;-58
2022/01/24 09:42:40;;;;;;;;;;;;;;;;;;5000501;28;19972;-57
2022/01/24 09:45:05;;;;;;;;;;;;;;;;;;5000372;28;19925;-57
2022/01/24 09:47:31;;;;;;;;;;;;;;;;;;5016618;28;19925;-57
2022/01/24 09:49:56;;;;;;;;;;;;;;;;;;5001674;28;19932;-58
2022/01/24 09:52:22;;;;;;;;;;;;;;;;;;5000900;28;19934;-58
2022/01/24 09:54:47;;;;;;;;;;;;;;;;;;5001701;28;19922;-57
2022/01/24 09:57:12;;;;;;;;;;;;;;;;;;5008856;28;19971;-56
2022/01/24 09:59:38;;;;;;;;;;;;;;;;;;5017947;28;19957;-58
2022/01/24 10:02:03;;;;;;;;;;;;;;;;;;5007075;28;20038;-57
2022/01/24 10:04:29;;;;;;;;;;;;;;;;;;5004372;28;19991;-58
2022/01/24 10:06:55;;;;;;;;;;;;;;;;;;5011176;28;20348;-57
2022/01/24 10:09:20;;;;;;;;;;;;;;;;;;4999109;28;19932;-60
2022/01/24 10:11:46;;;;;;;;;;;;;;;;;;5001386;28;19929;-56
2022/01/24 10:16:55;;;;;;;;;;;;;;;;;;5004395;28;19966;-58
2022/01/24 10:19:21;;;;;;;;;;;;;;;;;;5010007;28;19924;-57
2022/01/24 10:21:46;;;;;;;;;;;;;;;;;;5001046;28;20019;-57
2022/01/24 10:24:12;;;;;;;;;;;;;;;;;;4999659;28;19940;-58
2022/01/24 10:26:37;;;;;;;;;;;;;;;;;;5010349;28;20281;-58
2022/01/24 10:29:02;;;;;;;;;;;;;;;;;;5003634;28;20248;-54
2022/01/24 10:31:31;;;;;;;;;;;;;;;;;;4998889;28;19918;-58
2022/01/24 10:34:00;;;;;;;;;;;;;;;;;;5000307;28;19949;-56
2022/01/24 10:36:25;;;;;;;;;;;;;;;;;;4999195;28;19921;-57
2022/01/24 10:38:55;;;;;;;;;;;;;;;;;;4999111;28;19979;-57
2022/01/24 10:41:24;;;;;;;;;;;;;;;;;;4999306;28;20032;-57
2022/01/24 10:43:49;;;;;;;;;;;;;;;;;;4998856;28;19932;-59
2022/01/24 10:46:15;;;;;;;;;;;;;;;;;;5007938;28;19921;-55
2022/01/24 10:48:40;;;;;;;;;;;;;;;;;;4999910;28;20000;-57
2022/01/24 10:51:06;;;;;;;;;;;;;;;;;;4999643;28;19932;-58
2022/01/24 10:53:31;;;;;;;;;;;;;;;;;;5009561;28;20405;-57
2022/01/24 10:55:57;;;;;;;;;;;;;;;;;;5013140;28;20343;-57
2022/01/24 10:58:23;;;;;;;;;;;;;;;;;;5000031;28;20359;-58
2022/01/24 11:00:49;;;;;;;;;;;;;;;;;;5018739;28;19921;-58
2022/01/24 11:03:14;;;;;;;;;;;;;;;;;;5003533;28;19936;-56
2022/01/24 11:05:41;;;;;;;;;;;;;;;;;;5002090;28;19959;-58
2022/01/24 11:08:08;;;;;;;;;;;;;;;;;;5020368;28;19928;-58
2022/01/24 11:10:33;;;;;;;;;;;;;;;;;;5000812;28;20051;-58
2022/01/24 11:12:59;;;;;;;;;;;;;;;;;;5009931;28;20075;-56
2022/01/24 11:15:24;;;;;;;;;;;;;;;;;;5002025;28;19971;-57
2022/01/24 11:17:50;;;;;;;;;;;;;;;;;;5002475;28;19925;-58
2022/01/24 11:20:18;;;;;;;;;;;;;;;;;;5003260;28;19982;-58
2022/01/24 11:22:44;;;;;;;;;;;;;;;;;;5020445;28;19929;-58
2022/01/24 11:25:10;;;;;;;;;;;;;;;;;;5010325;28;20032;-58
2022/01/24 11:27:35;;;;;;;;;;;;;;;;;;5007111;28;19932;-57
2022/01/24 11:30:01;;;;;;;;;;;;;;;;;;4998615;28;19930;-57
2022/01/24 11:32:26;;;;;;;;;;;;;;;;;;4998792;28;21713;-57
2022/01/24 11:34:52;;;;;;;;;;;;;;;;;;4998431;28;19930;-58
2022/01/24 11:37:17;;;;;;;;;;;;;;;;;;4998166;28;19937;-57
2022/01/24 11:39:43;;;;;;;;;;;;;;;;;;4998016;28;19921;-57
2022/01/24 11:42:08;;;;;;;;;;;;;;;;;;5006313;28;19979;-57
2022/01/24 11:44:34;;;;;;;;;;;;;;;;;;5001423;28;19937;-58
2022/01/24 11:46:59;;;;;;;;;;;;;;;;;;5005642;28;19921;-58
2022/01/24 11:49:27;;;;;;;;;;;;;;;;;;4996280;28;19925;-58
2022/01/24 11:51:53;;;;;;;;;;;;;;;;;;4999527;28;19930;-55
2022/01/24 11:54:18;;;;;;;;;;;;;;;;;;4997852;28;19932;-57
2022/01/24 11:56:44;;;;;;;;;;;;;;;;;;4999474;28;19928;-58
2022/01/24 11:59:09;;;;;;;;;;;;;;;;;;4999447;28;19921;-58
2022/01/24 12:01:35;;;;;;;;;;;;;;;;;;5014914;28;20776;-57
2022/01/24 12:04:01;;;;;;;;;;;;;;;;;;5000820;28;19961;-58
2022/01/24 12:06:26;;;;;;;;;;;;;;;;;;5001354;28;20027;-58
2022/01/24 12:08:52;;;;;;;;;;;;;;;;;;5001902;28;20064;-58
2022/01/24 12:11:19;;;;;;;;;;;;;;;;;;5001764;28;19973;-58
2022/01/24 12:13:46;;;;;;;;;;;;;;;;;;5016179;28;19964;-58
2022/01/24 12:16:11;;;;;;;;;;;;;;;;;;5003094;28;19933;-57
2022/01/24 12:18:37;;;;;;;;;;;;;;;;;;5001197;28;19921;-58
2022/01/24 12:21:05;;;;;;;;;;;;;;;;;;5002454;28;20008;-58
2022/01/24 12:23:31;;;;;;;;;;;;;;;;;;5000691;28;20005;-58
2022/01/24 12:26:02;;;;;;;;;;;;;;;;;;5001285;28;20064;-58
2022/01/24 12:28:27;;;;;;;;;;;;;;;;;;4998741;28;20616;-58
2022/01/24 12:30:53;;;;;;;;;;;;;;;;;;5000325;28;19996;-58
2022/01/24 12:33:18;;;;;;;;;;;;;;;;;;5006436;28;19933;-55
2022/01/24 12:35:44;;;;;;;;;;;;;;;;;;4998420;28;20458;-56
2022/01/24 12:38:09;;;;;;;;;;;;;;;;;;4998081;28;19925;-56
2022/01/24 12:40:39;;;;;;;;;;;;;;;;;;4997676;28;19929;-57
2022/01/24 12:43:05;;;;;;;;;;;;;;;;;;4998802;28;20358;-56
2022/01/24 12:48:15;;;;;;;;;;;;;;;;;;5000765;28;19929;-57
2022/01/24 12:50:40;;;;;;;;;;;;;;;;;;5012521;28;19921;-56
2022/01/24 12:53:05;;;;;;;;;;;;;;;;;;4995885;28;19937;-54
2022/01/24 12:55:31;;;;;;;;;;;;;;;;;;4996284;28;19932;-56
2022/01/24 12:57:56;;;;;;;;;;;;;;;;;;4995675;28;19992;-56
2022/01/24 13:00:22;;;;;;;;;;;;;;;;;;4997602;28;19975;-56
2022/01/24 13:02:47;;;;;;;;;;;;;;;;;;5004908;28;19957;-55
2022/01/24 13:05:13;;;;;;;;;;;;;;;;;;4995947;28;19928;-57
2022/01/24 13:07:38;;;;;;;;;;;;;;;;;;5012507;28;19971;-57
2022/01/24 13:10:04;;;;;;;;;;;;;;;;;;4997275;28;19996;-57
2022/01/24 13:12:29;;;;;;;;;;;;;;;;;;5021785;28;19943;-57
2022/01/24 13:14:58;;;;;;;;;;;;;;;;;;5017055;28;20007;-54
2022/01/24 13:22:58;;;;;;;;;;;;;;;;;;5015406;28;19967;-58
2022/01/24 13:25:25;;;;;;;;;;;;;;;;;;5016235;28;19968;-57
2022/01/24 13:27:51;;;;;;;;;;;;;;;;;;5016010;28;19925;-57
2022/01/24 13:30:16;;;;;;;;;;;;;;;;;;5016783;28;19932;-57
2022/01/24 13:32:42;;;;;;;;;;;;;;;;;;5016074;28;21583;-57
2022/01/24 13:35:07;;;;;;;;;;;;;;;;;;5017128;28;19927;-57
2022/01/24 13:37:33;;;;;;;;;;;;;;;;;;5015684;28;19932;-57
2022/01/24 13:39:58;;;;;;;;;;;;;;;;;;5016951;28;19921;-57
2022/01/24 13:42:24;;;;;;;;;;;;;;;;;;5017182;28;19921;-56
2022/01/24 13:44:49;;;;;;;;;;;;;;;;;;5017174;28;20003;-57
2022/01/24 13:47:15;;;;;;;;;;;;;;;;;;5017304;28;19921;-57
2022/01/24 13:49:40;;;;;;;;;;;;;;;;;;5018324;28;20305;-57
2022/01/24 13:52:07;;;;;;;;;;;;;;;;;;5017487;28;19998;-56
2022/01/24 13:54:34;;;;;;;;;;;;;;;;;;5018146;28;19985;-57
2022/01/24 13:56:59;;;;;;;;;;;;;;;;;;5013225;28;20009;-58
2022/01/24 13:59:25;;;;;;;;;;;;;;;;;;5019054;28;19925;-56
2022/01/24 14:01:51;;;;;;;;;;;;;;;;;;5021647;28;20068;-54
2022/01/24 14:04:16;;;;;;;;;;;;;;;;;;5023715;28;19943;-57
2022/01/24 14:06:42;;;;;;;;;;;;;;;;;;5020928;28;20505;-58
2022/01/24 14:09:08;;;;;;;;;;;;;;;;;;5023194;28;19929;-57
2022/01/24 14:11:33;;;;;;;;;;;;;;;;;;5023996;28;20020;-57
2022/01/24 14:14:04;;;;;;;;;;;;;;;;;;5023155;28;19929;-57
2022/01/24 14:17:10;;;;;;;;;;;;;;;;;;5021730;28;20377;-56
2022/01/24 14:19:20;;;;;;;;;;;;;;;;;;5018705;28;19921;-56
2022/01/24 14:21:46;;;;;;;;;;;;;;;;;;5018809;28;19928;-57
2022/01/24 14:24:11;;;;;;;;;;;;;;;;;;5019497;28;19933;-55
2022/01/24 14:26:37;;;;;;;;;;;;;;;;;;5017866;28;19925;-56
2022/01/24 14:29:02;;;;;;;;;;;;;;;;;;5018567;28;19967;-57
2022/01/24 14:31:28;;;;;;;;;;;;;;;;;;5018862;28;19991;-57
2022/01/24 14:33:53;;;;;;;;;;;;;;;;;;5011581;28;19929;-56
2022/01/24 14:36:18;;;;;;;;;;;;;;;;;;5018421;28;20342;-57
2022/01/24 14:38:44;;;;;;;;;;;;;;;;;;5018642;28;20353;-57
2022/01/24 14:41:09;;;;;;;;;;;;;;;;;;5020000;28;20470;-56
2022/01/24 14:46:19;;;;;;;;;;;;;;;;;;5022127;28;20027;-56
2022/01/24 14:48:44;;;;;;;;;;;;;;;;;;5024250;28;19921;-57
2022/01/24 14:51:10;;;;;;;;;;;;;;;;;;5021588;28;20070;-57
2022/01/24 14:53:35;;;;;;;;;;;;;;;;;;5017836;28;19929;-56
2022/01/24 14:56:00;;;;;;;;;;;;;;;;;;5018618;28;20063;-55
2022/01/24 14:58:26;;;;;;;;;;;;;;;;;;5017653;28;19932;-56
2022/01/24 15:00:51;;;;;;;;;;;;;;;;;;5018865;28;19944;-55
2022/01/24 15:03:17;;;;;;;;;;;;;;;;;;5018926;28;19978;-57
2022/01/24 15:05:42;;;;;;;;;;;;;;;;;;5018560;28;20600;-57
2022/01/24 15:08:08;;;;;;;;;;;;;;;;;;5018335;28;19961;-58
2022/01/24 15:10:35;;;;;;;;;;;;;;;;;;5018489;28;19936;-56
2022/01/24 15:13:04;;;;;;;;;;;;;;;;;;5018670;28;20028;-58
2022/01/24 15:15:32;;;;;;;;;;;;;;;;;;5017065;28;19925;-57
2022/01/24 15:26:00;;;;;;;;;;;;;;;;;;5016926;28;19932;-57
2022/01/24 15:28:25;;;;;;;;;;;;;;;;;;5015746;28;19921;-56
2022/01/24 15:30:51;;;;;;;;;;;;;;;;;;5018159;28;20313;-57
2022/01/24 15:33:16;;;;;;;;;;;;;;;;;;5018003;28;19936;-56
2022/01/24 15:35:42;;;;;;;;;;;;;;;;;;5016922;28;19925;-57
2022/01/24 15:38:07;;;;;;;;;;;;;;;;;;5017102;28;19925;-57
2022/01/24 15:40:32;;;;;;;;;;;;;;;;;;5019522;28;20382;-56
2022/01/24 15:46:43;;;;;;;;;;;;;;;;;;5019426;28;20020;-57
2022/01/24 15:48:47;;;;;;;;;;;;;;;;;;5020798;28;20012;-54
2022/01/24 15:51:12;;;;;;;;;;;;;;;;;;5022132;28;20015;-54
2022/01/24 15:53:38;;;;;;;;;;;;;;;;;;5022725;28;19982;-56
2022/01/24 15:56:16;;;;;;;;;;;;;;;;;;5025872;28;19921;-57
2022/01/24 15:58:41;;;;;;;;;;;;;;;;;;5024191;28;19932;-57
2022/01/24 16:01:07;;;;;;;;;;;;;;;;;;5025816;28;19922;-57
2022/01/24 16:03:32;;;;;;;;;;;;;;;;;;5026590;28;20112;-57
2022/01/24 16:05:57;;;;;;;;;;;;;;;;;;5024171;28;19956;-56
2022/01/24 16:08:23;;;;;;;;;;;;;;;;;;5020717;28;19961;-56
2022/01/24 16:10:48;;;;;;;;;;;;;;;;;;5020765;28;19925;-57
2022/01/24 16:13:14;;;;;;;;;;;;;;;;;;5019792;28;19940;-56
2022/01/24 16:15:41;;;;;;;;;;;;;;;;;;5017602;28;19925;-57
2022/01/24 16:18:08;;;;;;;;;;;;;;;;;;5017051;28;19925;-57
2022/01/24 16:20:43;;;;;;;;;;;;;;;;;;5017587;28;20064;-57
2022/01/24 16:25:43;;;;;;;;;;;;;;;;;;5015234;28;20376;-57
2022/01/24 16:28:08;;;;;;;;;;;;;;;;;;5016337;28;20015;-55
2022/01/24 16:30:34;;;;;;;;;;;;;;;;;;5017055;28;20643;-57
2022/01/24 16:32:59;;;;;;;;;;;;;;;;;;5017280;28;19971;-57
2022/01/24 16:35:25;;;;;;;;;;;;;;;;;;5015986;28;20688;-57
2022/01/24 16:37:51;;;;;;;;;;;;;;;;;;5016882;28;19921;-57
2022/01/24 16:40:24;;;;;;;;;;;;;;;;;;5018558;28;20022;-57
2022/01/24 16:43:13;;;;;;;;;;;;;;;;;;5018017;28;19925;-57
2022/01/24 16:48:22;;;;;;;;;;;;;;;;;;5016183;28;20314;-58
2022/01/24 16:50:47;;;;;;;;;;;;;;;;;;5018991;28;19995;-58
2022/01/24 16:53:15;;;;;;;;;;;;;;;;;;5017321;28;19936;-58
2022/01/24 16:55:41;;;;;;;;;;;;;;;;;;5016129;28;19984;-58
2022/01/24 16:58:06;;;;;;;;;;;;;;;;;;5016342;28;20376;-58
2022/01/24 17:00:32;;;;;;;;;;;;;;;;;;5015651;28;19925;-57
2022/01/24 17:02:57;;;;;;;;;;;;;;;;;;5017687;28;19921;-58
2022/01/24 17:05:22;;;;;;;;;;;;;;;;;;5016428;28;19940;-57
2022/01/24 17:07:48;;;;;;;;;;;;;;;;;;5016934;28;19921;-57
2022/01/24 17:10:13;;;;;;;;;;;;;;;;;;5038735;28;19928;-57
2022/01/24 17:12:39;;;;;;;;;;;;;;;;;;5016322;28;19929;-58
2022/01/24 17:15:05;;;;;;;;;;;;;;;;;;5015227;28;19921;-57
2022/01/24 17:17:31;;;;;;;;;;;;;;;;;;5014599;28;19925;-58
2022/01/24 17:19:57;;;;;;;;;;;;;;;;;;5015990;28;19932;-56
2022/01/24 17:22:22;;;;;;;;;;;;;;;;;;5015991;28;19925;-58
2022/01/24 17:24:48;;;;;;;;;;;;;;;;;;5015763;28;19937;-56
2022/01/24 17:27:13;;;;;;;;;;;;;;;;;;5016072;28;19928;-57
2022/01/24 17:29:39;;;;;;;;;;;;;;;;;;5014739;28;19925;-57
2022/01/24 17:32:04;;;;;;;;;;;;;;;;;;5016832;28;19955;-57
2022/01/24 17:34:29;;;;;;;;;;;;;;;;;;5015962;28;19962;-57
2022/01/24 17:36:55;;;;;;;;;;;;;;;;;;5015964;28;19947;-57
2022/01/24 17:39:20;;;;;;;;;;;;;;;;;;5018781;28;20301;-55
2022/01/24 17:41:46;;;;;;;;;;;;;;;;;;5021521;28;19925;-53
2022/01/24 17:44:13;;;;;;;;;;;;;;;;;;5022680;28;19943;-57
2022/01/24 17:46:39;;;;;;;;;;;;;;;;;;5020946;28;19928;-57
2022/01/24 17:49:04;;;;;;;;;;;;;;;;;;5030738;28;19925;-56
2022/01/24 17:51:30;;;;;;;;;;;;;;;;;;5022678;28;19925;-54
2022/01/24 17:53:55;;;;;;;;;;;;;;;;;;5022387;28;20023;-57
2022/01/24 17:56:21;;;;;;;;;;;;;;;;;;5023942;28;19921;-56
2022/01/24 17:58:46;;;;;;;;;;;;;;;;;;5024562;28;19921;-56
2022/01/24 18:01:12;;;;;;;;;;;;;;;;;;5024151;28;20020;-57
2022/01/24 18:03:37;;;;;;;;;;;;;;;;;;5020618;28;19925;-57
2022/01/24 18:06:03;;;;;;;;;;;;;;;;;;5020165;28;19925;-57
2022/01/24 18:08:30;;;;;;;;;;;;;;;;;;5019350;28;19928;-56
2022/01/24 18:10:56;;;;;;;;;;;;;;;;;;5021086;28;19933;-57
2022/01/24 18:13:21;;;;;;;;;;;;;;;;;;5019500;28;19929;-57
2022/01/24 18:15:49;;;;;;;;;;;;;;;;;;5020766;28;19921;-56
2022/01/24 18:18:14;;;;;;;;;;;;;;;;;;5019859;28;19964;-57
2022/01/24 18:20:40;;;;;;;;;;;;;;;;;;5019016;28;20015;-56
2022/01/24 18:23:05;;;;;;;;;;;;;;;;;;5019300;28;20028;-57
2022/01/24 18:25:31;;;;;;;;;;;;;;;;;;5018404;28;19932;-56
2022/01/24 18:27:56;;;;;;;;;;;;;;;;;;5019121;28;19925;-57
2022/01/24 18:30:23;;;;;;;;;;;;;;;;;;5018520;28;19925;-57
2022/01/24 18:32:48;;;;;;;;;;;;;;;;;;5019163;28;20016;-57
2022/01/24 18:35:13;;;;;;;;;;;;;;;;;;5019590;28;19935;-56
2022/01/24 18:37:39;;;;;;;;;;;;;;;;;;5017691;28;20056;-56
2022/01/24 18:40:04;;;;;;;;;;;;;;;;;;5019704;28;20008;-56
2022/01/24 18:42:32;;;;;;;;;;;;;;;;;;5018868;28;19983;-57
2022/01/24 18:44:58;;;;;;;;;;;;;;;;;;5019891;28;19999;-58
2022/01/24 18:47:24;;;;;;;;;;;;;;;;;;5018350;28;20406;-57
2022/01/24 18:49:49;;;;;;;;;;;;;;;;;;5019371;28;20325;-57
2022/01/24 18:52:15;;;;;;;;;;;;;;;;;;5021704;28;20043;-56
2022/01/24 18:54:40;;;;;;;;;;;;;;;;;;5022030;28;19925;-56